createdAt,value
2018-07-13T00:01:06.510Z,15.40
2018-07-13T00:03:35.806Z,15.40
2018-07-13T00:06:04.937Z,15.30
2018-07-13T00:08:34.420Z,15.20
2018-07-13T00:11:03.765Z,15.10
2018-07-13T00:13:38.501Z,15.00
2018-07-13T00:18:36.449Z,14.80
2018-07-13T00:21:05.741Z,14.80
2018-07-13T00:23:34.866Z,14.70
2018-07-13T00:26:04.273Z,14.70
2018-07-13T00:28:33.397Z,14.70
2018-07-13T00:31:02.549Z,14.60
2018-07-13T00:33:31.832Z,14.60
2018-07-13T00:36:00.976Z,14.60
2018-07-13T00:38:30.805Z,14.70
2018-07-13T00:43:28.987Z,14.80
2018-07-13T00:45:58.329Z,14.80
2018-07-13T00:50:56.332Z,14.80
2018-07-13T00:53:25.727Z,14.80
2018-07-13T00:55:55.082Z,14.70
2018-07-13T00:58:24.236Z,14.70
2018-07-13T01:00:54.354Z,14.60
2018-07-13T01:03:24.357Z,14.60
2018-07-13T01:05:54.414Z,14.70
2018-07-13T01:08:24.398Z,14.70
2018-07-13T01:10:54.094Z,14.70
2018-07-13T01:13:23.605Z,14.70
2018-07-13T01:15:53.147Z,14.70
2018-07-13T01:18:22.646Z,14.70
2018-07-13T01:20:52.669Z,14.70
2018-07-13T01:25:52.010Z,14.70
2018-07-13T01:28:21.866Z,14.80
2018-07-13T01:30:52.347Z,14.80
2018-07-13T01:33:22.263Z,14.80
2018-07-13T01:35:51.986Z,14.70
2018-07-13T01:43:19.809Z,14.70
2018-07-13T01:45:49.822Z,14.70
2018-07-13T01:48:19.940Z,14.60
2018-07-13T01:50:49.552Z,14.60
2018-07-13T01:53:18.976Z,14.60
2018-07-13T01:58:17.565Z,14.60
2018-07-13T02:00:47.072Z,14.60
2018-07-13T02:03:17.085Z,14.50
2018-07-13T02:05:47.253Z,14.50
2018-07-13T02:08:17.284Z,14.50
2018-07-13T02:10:47.149Z,14.50
2018-07-13T02:13:16.942Z,14.50
2018-07-13T02:15:46.141Z,14.40
2018-07-13T02:18:15.552Z,14.40
2018-07-13T02:20:44.575Z,14.50
2018-07-13T02:23:13.723Z,14.50
2018-07-13T02:25:42.858Z,14.50
2018-07-13T02:28:11.943Z,14.50
2018-07-13T02:30:41.009Z,14.50
2018-07-13T02:33:10.167Z,14.60
2018-07-13T02:35:39.228Z,14.60
2018-07-13T02:38:08.276Z,14.60
2018-07-13T02:40:37.355Z,14.50
2018-07-13T02:45:35.262Z,14.50
2018-07-13T02:48:04.344Z,14.40
2018-07-13T02:50:33.622Z,14.40
2018-07-13T02:53:02.724Z,14.40
2018-07-13T02:55:31.743Z,14.30
2018-07-13T02:58:01.013Z,14.30
2018-07-13T03:00:30.176Z,14.30
2018-07-13T03:02:59.389Z,14.20
2018-07-13T03:05:28.500Z,14.20
2018-07-13T03:07:57.654Z,14.10
2018-07-13T03:10:26.661Z,14.10
2018-07-13T03:12:55.669Z,14.10
2018-07-13T03:15:24.720Z,14.10
2018-07-13T03:17:54.035Z,14.10
2018-07-13T03:20:23.266Z,14.20
2018-07-13T03:22:52.382Z,14.20
2018-07-13T03:25:21.532Z,14.10
2018-07-13T03:27:50.576Z,14.20
2018-07-13T03:30:19.664Z,14.20
2018-07-13T03:32:48.702Z,14.20
2018-07-13T03:35:17.937Z,14.20
2018-07-13T03:37:47.122Z,14.20
2018-07-13T03:40:16.194Z,14.30
2018-07-13T03:42:45.558Z,14.30
2018-07-13T03:45:14.637Z,14.30
2018-07-13T03:47:43.639Z,14.30
2018-07-13T03:50:12.700Z,14.30
2018-07-13T03:52:41.845Z,14.30
2018-07-13T03:55:11.026Z,14.30
2018-07-13T03:57:40.146Z,14.30
2018-07-13T04:00:09.528Z,14.30
2018-07-13T04:02:38.654Z,14.30
2018-07-13T04:05:08.127Z,14.40
2018-07-13T04:07:37.340Z,14.50
2018-07-13T04:10:06.761Z,14.60
2018-07-13T04:12:36.015Z,14.60
2018-07-13T04:15:05.134Z,14.70
2018-07-13T04:17:34.235Z,14.60
2018-07-13T04:22:32.331Z,14.80
2018-07-13T04:25:01.721Z,14.80
2018-07-13T04:27:32.355Z,14.90
2018-07-13T04:30:01.639Z,14.90
2018-07-13T04:32:31.154Z,14.80
2018-07-13T04:35:00.634Z,14.70
2018-07-13T04:37:30.767Z,14.60
2018-07-13T04:40:00.128Z,14.70
2018-07-13T04:49:55.778Z,15.20
2018-07-13T04:52:25.072Z,15.20
2018-07-13T04:54:54.339Z,15.30
2018-07-13T04:57:23.478Z,15.30
2018-07-13T04:59:52.886Z,15.40
2018-07-13T05:02:22.161Z,15.50
2018-07-13T05:04:51.538Z,15.60
2018-07-13T05:07:20.812Z,15.70
2018-07-13T05:09:49.957Z,15.80
2018-07-13T05:12:19.411Z,16.00
2018-07-13T05:17:17.608Z,16.10
2018-07-13T05:19:46.877Z,16.10
2018-07-13T05:22:16.456Z,16.00
2018-07-13T05:24:45.664Z,16.10
2018-07-13T05:27:15.153Z,16.30
2018-07-13T05:29:44.399Z,16.30
2018-07-13T05:32:13.784Z,16.40
2018-07-13T05:34:43.224Z,16.70
2018-07-13T05:37:13.006Z,16.90
2018-07-13T05:39:42.413Z,17.00
2018-07-13T05:42:11.847Z,16.90
2018-07-13T05:44:41.453Z,17.20
2018-07-13T05:47:10.723Z,17.70
2018-07-13T05:49:40.046Z,17.90
2018-07-13T05:52:09.347Z,18.10
2018-07-13T05:54:38.683Z,18.30
2018-07-13T05:57:08.340Z,18.30
2018-07-13T05:59:37.772Z,18.40
2018-07-13T06:02:07.002Z,18.50
2018-07-13T06:07:04.961Z,19.20
2018-07-13T06:09:34.186Z,19.80
2018-07-13T06:12:03.614Z,20.90
2018-07-13T06:14:32.850Z,22.30
2018-07-13T06:17:02.056Z,24.20
2018-07-13T06:19:31.305Z,25.10
2018-07-13T06:22:00.518Z,26.40
2018-07-13T06:24:29.741Z,28.50
2018-07-13T06:26:58.765Z,30.70
2018-07-13T06:29:28.084Z,32.10
2018-07-13T06:31:57.316Z,33.50
2018-07-13T06:34:26.740Z,34.40
2018-07-13T06:36:56.922Z,34.90
2018-07-13T06:39:26.222Z,35.80
2018-07-13T06:41:55.761Z,36.60
2018-07-13T06:44:25.092Z,37.30
2018-07-13T06:49:23.354Z,39.30
2018-07-13T06:51:52.612Z,39.70
2018-07-13T06:54:22.742Z,40.10
2018-07-13T06:56:52.000Z,39.70
2018-07-13T06:59:21.559Z,39.10
2018-07-13T07:01:50.827Z,38.70
2018-07-13T07:04:22.753Z,38.60
2018-07-13T07:06:52.540Z,38.20
2018-07-13T07:09:22.165Z,37.90
2018-07-13T07:13:07.806Z,37.20
2018-07-13T07:15:37.624Z,36.00
2018-07-13T07:18:07.344Z,34.80
2018-07-13T07:20:37.104Z,33.60
2018-07-13T07:23:06.465Z,32.60
2018-07-13T07:25:35.746Z,32.30
2018-07-13T07:28:05.162Z,34.00
2018-07-13T07:30:34.710Z,36.00
2018-07-13T07:33:03.810Z,37.60
2018-07-13T07:35:32.958Z,38.00
2018-07-13T07:38:02.346Z,38.10
2018-07-13T07:40:35.578Z,39.00
2018-07-13T07:43:04.844Z,39.50
2018-07-13T07:45:34.166Z,39.30
2018-07-13T07:48:03.442Z,39.00
2018-07-13T07:50:32.903Z,39.60
2018-07-13T07:53:02.200Z,40.90
2018-07-13T07:55:31.476Z,42.20
2018-07-13T07:58:01.370Z,43.20
2018-07-13T08:00:30.892Z,43.60
2018-07-13T08:03:00.280Z,44.40
2018-07-13T08:05:29.591Z,45.20
2018-07-13T08:07:58.887Z,45.70
2018-07-13T08:10:28.481Z,45.60
2018-07-13T08:12:57.702Z,45.90
2018-07-13T08:15:27.245Z,46.10
2018-07-13T08:17:56.456Z,46.40
2018-07-13T08:20:33.387Z,46.60
2018-07-13T08:23:07.221Z,47.00
2018-07-13T08:25:37.011Z,47.40
2018-07-13T08:28:07.309Z,47.80
2018-07-13T08:30:40.141Z,47.90
2018-07-13T08:33:10.003Z,47.90
2018-07-13T08:35:39.123Z,48.10
2018-07-13T08:38:08.486Z,48.20
2018-07-13T08:40:37.748Z,46.70
2018-07-13T08:45:35.758Z,45.50
2018-07-13T08:48:04.942Z,44.50
2018-07-13T08:50:34.255Z,44.50
2018-07-13T08:53:03.411Z,45.30
2018-07-13T08:55:32.750Z,46.30
2018-07-13T08:58:02.109Z,46.70
2018-07-13T09:02:59.967Z,45.30
2018-07-13T09:05:29.216Z,44.90
2018-07-13T09:07:58.391Z,45.30
2018-07-13T09:10:27.584Z,44.60
2018-07-13T09:12:56.765Z,43.70
2018-07-13T09:15:25.803Z,43.00
2018-07-13T09:17:55.151Z,42.70
2018-07-13T09:20:24.716Z,42.60
2018-07-13T09:22:54.217Z,40.30
2018-07-13T09:25:23.552Z,40.40
2018-07-13T09:30:21.561Z,41.70
2018-07-13T09:32:50.787Z,42.40
2018-07-13T09:35:20.098Z,43.10
2018-07-13T09:37:49.548Z,43.70
2018-07-13T09:40:18.749Z,44.20
2018-07-13T09:42:48.200Z,43.00
2018-07-13T09:45:17.748Z,41.90
2018-07-13T09:47:46.929Z,41.30
2018-07-13T09:50:16.122Z,41.10
2018-07-13T09:52:45.387Z,40.50
2018-07-13T09:55:14.655Z,39.50
2018-07-13T09:57:43.969Z,39.40
2018-07-13T10:00:13.996Z,39.70
2018-07-13T10:02:43.145Z,40.70
2018-07-13T10:05:12.316Z,41.80
2018-07-13T10:07:41.488Z,41.50
2018-07-13T10:10:10.618Z,40.90
2018-07-13T10:12:40.129Z,40.50
2018-07-13T10:15:10.084Z,40.50
2018-07-13T10:17:39.304Z,41.30
2018-07-13T10:20:08.826Z,42.10
2018-07-13T10:22:38.077Z,42.00
2018-07-13T10:25:07.514Z,42.10
2018-07-13T10:27:38.508Z,41.80
2018-07-13T10:30:11.846Z,39.70
2018-07-13T10:32:42.614Z,38.50
2018-07-13T10:35:11.778Z,37.80
2018-07-13T10:37:41.765Z,36.90
2018-07-13T10:40:11.026Z,36.80
2018-07-13T10:42:40.125Z,37.20
2018-07-13T10:50:06.830Z,38.90
2018-07-13T10:52:36.082Z,38.70
2018-07-13T10:55:05.416Z,38.70
2018-07-13T10:57:34.603Z,38.90
2018-07-13T11:00:04.061Z,39.20
2018-07-13T11:02:33.340Z,38.70
2018-07-13T11:05:02.679Z,37.90
2018-07-13T11:07:32.054Z,37.60
2018-07-13T11:12:29.950Z,37.20
2018-07-13T11:14:59.180Z,38.20
2018-07-13T11:17:28.311Z,37.80
2018-07-13T11:22:26.152Z,37.60
2018-07-13T11:24:55.416Z,36.90
2018-07-13T11:27:24.480Z,36.00
2018-07-13T11:29:53.566Z,34.30
2018-07-13T11:32:22.847Z,34.50
2018-07-13T11:34:52.216Z,34.00
2018-07-13T11:37:21.436Z,32.60
2018-07-13T11:39:50.488Z,31.20
2018-07-13T11:42:19.869Z,30.40
2018-07-13T11:44:49.154Z,29.40
2018-07-13T11:47:18.409Z,28.50
2018-07-13T11:49:47.497Z,27.80
2018-07-13T11:57:14.584Z,26.50
2018-07-13T11:59:43.744Z,26.00
2018-07-13T12:02:12.900Z,25.80
2018-07-13T12:04:42.077Z,24.30
2018-07-13T12:07:11.215Z,21.80
2018-07-13T12:09:40.363Z,20.40
2018-07-13T12:12:10.740Z,19.50
2018-07-13T12:14:39.853Z,19.10
2018-07-13T12:17:09.032Z,18.80
2018-07-13T12:19:38.118Z,18.70
2018-07-13T12:24:36.120Z,19.90
2018-07-13T12:27:05.443Z,20.20
2018-07-13T12:29:34.798Z,20.50
2018-07-13T12:32:03.846Z,20.60
2018-07-13T12:34:33.073Z,20.80
2018-07-13T12:37:02.164Z,21.10
2018-07-13T12:39:31.320Z,21.20
2018-07-13T12:42:00.337Z,21.00
2018-07-13T12:44:29.325Z,20.90
2018-07-13T12:46:58.655Z,21.00
2018-07-13T12:49:27.860Z,21.10
2018-07-13T12:51:57.006Z,21.20
2018-07-13T12:54:26.302Z,21.50
2018-07-13T12:56:55.364Z,21.70
2018-07-13T13:01:53.173Z,21.70
2018-07-13T13:04:22.478Z,21.80
2018-07-13T13:06:51.700Z,22.20
2018-07-13T13:09:20.707Z,22.50
2018-07-13T13:11:49.819Z,23.00
2018-07-13T13:14:18.868Z,23.40
2018-07-13T13:16:48.021Z,23.60
2018-07-13T13:19:17.083Z,23.70
2018-07-13T13:21:46.391Z,23.70
2018-07-13T13:24:15.646Z,23.90
2018-07-13T13:26:44.906Z,24.20
2018-07-13T13:29:14.289Z,24.50
2018-07-13T13:31:43.405Z,24.90
2018-07-13T13:34:12.633Z,25.60
2018-07-13T13:36:41.987Z,26.20
2018-07-13T13:39:11.152Z,26.80
2018-07-13T13:41:40.423Z,27.30
2018-07-13T13:46:38.443Z,27.90
2018-07-13T13:49:07.752Z,27.90
2018-07-13T13:51:37.020Z,28.00
2018-07-13T13:54:06.782Z,28.00
2018-07-13T13:56:36.149Z,27.90
2018-07-13T13:59:05.368Z,27.70
2018-07-13T14:01:34.711Z,27.20
2018-07-13T14:04:03.955Z,26.60
2018-07-13T14:06:33.480Z,25.90
2018-07-13T14:09:02.979Z,25.30
2018-07-13T14:11:32.447Z,24.70
2018-07-13T14:14:01.980Z,24.30
2018-07-13T14:16:32.118Z,24.10
2018-07-13T14:19:01.449Z,24.00
2018-07-13T14:21:30.973Z,24.00
2018-07-13T14:24:00.108Z,24.00
2018-07-13T14:26:29.269Z,24.10
2018-07-13T14:28:58.702Z,24.30
2018-07-13T14:31:27.856Z,24.60
2018-07-13T14:33:57.230Z,24.60
2018-07-13T14:36:27.703Z,24.80
2018-07-13T14:38:56.851Z,24.90
2018-07-13T14:41:26.020Z,25.10
2018-07-13T14:43:55.220Z,25.40
2018-07-13T14:46:24.399Z,25.70
2018-07-13T14:48:53.655Z,26.00
2018-07-13T14:51:22.940Z,26.50
2018-07-13T14:53:52.201Z,27.20
2018-07-13T14:56:21.482Z,27.80
2018-07-13T14:58:50.605Z,28.00
2018-07-13T15:01:19.908Z,28.10
2018-07-13T15:03:49.212Z,28.20
2018-07-13T15:06:18.789Z,28.20
2018-07-13T15:08:47.735Z,28.30
2018-07-13T15:11:16.853Z,28.60
2018-07-13T15:13:46.011Z,28.70
2018-07-13T15:16:15.198Z,28.70
2018-07-13T15:18:44.506Z,28.70
2018-07-13T15:21:13.832Z,28.80
2018-07-13T15:23:43.822Z,28.80
2018-07-13T15:26:13.004Z,28.90
2018-07-13T15:28:42.271Z,28.90
2018-07-13T15:33:40.567Z,28.80
2018-07-13T15:36:09.768Z,28.80
2018-07-13T15:38:38.891Z,28.70
2018-07-13T15:41:08.208Z,28.60
2018-07-13T15:43:37.414Z,28.50
2018-07-13T15:46:06.939Z,28.50
2018-07-13T15:48:36.151Z,28.50
2018-07-13T15:51:05.353Z,28.40
2018-07-13T15:53:34.483Z,28.40
2018-07-13T15:56:03.742Z,28.40
2018-07-13T16:01:01.585Z,28.30
2018-07-13T16:03:30.829Z,28.30
2018-07-13T16:06:00.160Z,28.20
2018-07-13T16:08:29.328Z,28.20
2018-07-13T16:10:58.553Z,28.20
2018-07-13T16:13:27.741Z,28.10
2018-07-13T16:18:25.712Z,28.10
2018-07-13T16:20:54.882Z,28.20
2018-07-13T16:23:24.328Z,28.20
2018-07-13T16:25:53.665Z,28.20
2018-07-13T16:28:23.114Z,28.20
2018-07-13T16:35:49.905Z,28.20
2018-07-13T16:38:19.306Z,28.20
2018-07-13T16:40:48.603Z,28.20
2018-07-13T16:43:17.803Z,28.20
2018-07-13T16:45:47.017Z,28.10
2018-07-13T16:48:16.352Z,28.00
2018-07-13T16:50:45.688Z,27.80
2018-07-13T16:53:15.026Z,27.70
2018-07-13T16:55:44.422Z,27.70
2018-07-13T16:58:13.721Z,27.70
2018-07-13T17:00:42.807Z,27.70
2018-07-13T17:03:12.200Z,27.70
2018-07-13T17:05:41.391Z,27.70
2018-07-13T17:08:10.583Z,27.50
2018-07-13T17:10:39.849Z,27.30
2018-07-13T17:13:09.031Z,27.10
2018-07-13T17:15:38.122Z,26.90
2018-07-13T17:18:07.409Z,26.80
2018-07-13T17:20:36.780Z,26.60
2018-07-13T17:23:06.059Z,26.50
2018-07-13T17:25:35.256Z,26.30
2018-07-13T17:28:04.516Z,26.20
2018-07-13T17:33:02.680Z,25.90
2018-07-13T17:35:31.846Z,25.70
2018-07-13T17:38:01.158Z,25.60
2018-07-13T17:40:30.373Z,25.50
2018-07-13T17:45:28.509Z,25.30
2018-07-13T17:50:26.621Z,25.10
2018-07-13T17:52:55.841Z,25.10
2018-07-13T17:55:25.029Z,25.10
2018-07-13T17:57:54.199Z,25.20
2018-07-13T18:02:52.219Z,25.20
2018-07-13T18:05:21.301Z,25.10
2018-07-13T18:07:50.447Z,25.10
2018-07-13T18:10:19.761Z,25.00
2018-07-13T18:12:49.228Z,24.90
2018-07-13T18:15:18.496Z,24.90
2018-07-13T18:17:47.688Z,24.80
2018-07-13T18:20:16.974Z,24.60
2018-07-13T18:22:46.222Z,24.50
2018-07-13T18:27:44.153Z,24.30
2018-07-13T18:30:13.878Z,24.20
2018-07-13T18:32:44.055Z,24.10
2018-07-13T18:35:14.022Z,24.00
2018-07-13T18:37:44.252Z,23.90
2018-07-13T18:40:14.314Z,23.80
2018-07-13T18:42:43.686Z,23.70
2018-07-13T18:45:13.485Z,23.70
2018-07-13T18:47:43.563Z,23.60
2018-07-13T18:52:42.658Z,23.50
2018-07-13T18:55:12.681Z,23.40
2018-07-13T18:57:42.797Z,23.20
2018-07-13T19:00:12.374Z,23.00
2018-07-13T19:02:42.685Z,22.90
2018-07-13T19:05:12.656Z,22.80
2018-07-13T19:10:11.567Z,22.60
2018-07-13T19:12:41.121Z,22.50
2018-07-13T19:15:10.866Z,22.40
2018-07-13T19:17:40.268Z,22.10
2018-07-13T19:20:09.704Z,21.90
2018-07-13T19:22:39.345Z,21.70
2018-07-13T19:25:08.957Z,21.60
2018-07-13T19:27:39.204Z,21.50
2018-07-13T19:30:08.937Z,21.40
2018-07-13T19:32:39.078Z,21.30
2018-07-13T19:35:08.635Z,21.30
2018-07-13T19:37:38.049Z,21.30
2018-07-13T19:42:37.150Z,21.20
2018-07-13T19:45:07.533Z,21.10
2018-07-13T19:47:37.600Z,21.00
2018-07-13T19:52:36.878Z,20.70
2018-07-13T19:55:06.609Z,20.50
2018-07-13T19:57:36.623Z,20.40
2018-07-13T20:00:06.304Z,20.20
2018-07-13T20:02:35.535Z,20.20
2018-07-13T20:07:34.947Z,20.10
2018-07-13T20:10:05.537Z,20.10
2018-07-13T20:12:35.545Z,20.00
2018-07-13T20:15:05.627Z,19.90
2018-07-13T20:17:35.845Z,19.70
2018-07-13T20:20:07.587Z,19.60
2018-07-13T20:25:07.284Z,19.40
2018-07-13T20:27:37.801Z,19.30
2018-07-13T20:30:08.445Z,19.20
2018-07-13T20:32:38.520Z,19.10
2018-07-13T20:37:38.084Z,19.00
2018-07-13T20:42:37.523Z,18.80
2018-07-13T20:47:37.062Z,18.70
2018-07-13T20:50:07.394Z,18.70
2018-07-13T20:52:38.227Z,18.70
2018-07-13T20:55:08.634Z,18.70
2018-07-13T20:57:37.963Z,18.80
2018-07-13T21:00:07.838Z,18.70
2018-07-13T21:02:37.187Z,18.70
2018-07-13T21:05:06.407Z,18.60
2018-07-13T21:07:35.609Z,18.60
2018-07-13T21:10:04.739Z,18.50
2018-07-13T21:12:33.856Z,18.50
2018-07-13T21:15:03.134Z,18.50
2018-07-13T21:17:32.335Z,18.50
2018-07-13T21:20:01.577Z,18.40
2018-07-13T21:22:30.725Z,18.40
2018-07-13T21:24:59.808Z,18.40
2018-07-13T21:27:28.945Z,18.40
2018-07-13T21:29:58.301Z,18.50
2018-07-13T21:32:27.427Z,18.50
2018-07-13T21:34:56.743Z,18.50
2018-07-13T21:37:26.175Z,18.40
2018-07-13T21:39:55.331Z,18.30
2018-07-13T21:42:24.465Z,18.30
2018-07-13T21:44:53.581Z,18.30
2018-07-13T21:47:22.835Z,18.30
2018-07-13T21:49:52.058Z,18.20
2018-07-13T21:52:21.257Z,18.20
2018-07-13T21:54:50.547Z,18.10
2018-07-13T21:57:19.511Z,18.10
2018-07-13T21:59:48.723Z,18.10
2018-07-13T22:02:17.936Z,18.00
2018-07-13T22:07:15.847Z,17.90
2018-07-13T22:09:45.071Z,17.90
2018-07-13T22:12:14.213Z,17.80
2018-07-13T22:14:43.357Z,17.80
2018-07-13T22:17:12.578Z,17.80
2018-07-13T22:19:41.781Z,17.80
2018-07-13T22:22:11.088Z,17.70
2018-07-13T22:24:40.314Z,17.60
2018-07-13T22:27:09.451Z,17.60
2018-07-13T22:29:38.685Z,17.50
2018-07-13T22:34:36.845Z,17.30
2018-07-13T22:37:06.093Z,17.20
2018-07-13T22:39:35.141Z,17.10
2018-07-13T22:42:04.524Z,17.00
2018-07-13T22:44:33.910Z,16.90
2018-07-13T22:47:03.034Z,16.90
2018-07-13T22:49:32.539Z,16.90
2018-07-13T22:52:01.804Z,16.90
2018-07-13T22:56:59.854Z,16.80
2018-07-13T22:59:28.909Z,16.70
2018-07-13T23:01:58.153Z,16.60
2018-07-13T23:06:56.356Z,16.50
2018-07-13T23:09:25.598Z,16.50
2018-07-13T23:11:54.875Z,16.50
2018-07-13T23:14:24.069Z,16.50
2018-07-13T23:16:53.304Z,16.50
2018-07-13T23:19:22.422Z,16.40
2018-07-13T23:21:51.763Z,16.40
2018-07-13T23:24:21.026Z,16.30
2018-07-13T23:26:50.272Z,16.30
2018-07-13T23:29:19.442Z,16.20
2018-07-13T23:31:48.858Z,16.20
2018-07-13T23:36:46.952Z,16.10
2018-07-13T23:39:16.146Z,16.00
2018-07-13T23:41:45.414Z,16.00
2018-07-13T23:44:14.639Z,15.90
2018-07-13T23:46:44.154Z,15.80
2018-07-13T23:49:13.322Z,15.80
2018-07-13T23:51:42.615Z,15.70
2018-07-13T23:54:11.751Z,15.70
2018-07-13T23:56:40.865Z,15.60
2018-07-13T23:59:09.951Z,15.50
